sensor_id;sensor_type;location;lat;lon;timestamp;pressure;altitude;pressure_sealevel;temperature;humidity
69306;BME280;56427;51.580;4.656;2022-10-20T00:00:01;101613.91;;;9.69;100.00
69306;BME280;56427;51.580;4.656;2022-10-20T00:02:26;101601.25;;;9.65;100.00
69306;BME280;56427;51.580;4.656;2022-10-20T00:04:51;101597.28;;;9.72;100.00
69306;BME280;56427;51.580;4.656;2022-10-20T00:07:16;101598.56;;;9.79;100.00
69306;BME280;56427;51.580;4.656;2022-10-20T00:09:42;101601.88;;;9.68;100.00
69306;BME280;56427;51.580;4.656;2022-10-20T00:12:07;101598.34;;;9.69;100.00
69306;BME280;56427;51.580;4.656;2022-10-20T00:14:32;101595.00;;;9.80;100.00
69306;BME280;56427;51.580;4.656;2022-10-20T00:16:58;101605.53;;;9.79;100.00
69306;BME280;56427;51.580;4.656;2022-10-20T00:19:25;101602.78;;;9.80;100.00
69306;BME280;56427;51.580;4.656;2022-10-20T00:21:51;101592.56;;;9.79;100.00
69306;BME280;56427;51.580;4.656;2022-10-20T00:24:16;101592.09;;;9.72;100.00
69306;BME280;56427;51.580;4.656;2022-10-20T00:26:44;101593.38;;;9.79;100.00
69306;BME280;56427;51.580;4.656;2022-10-20T00:29:10;101589.66;;;9.70;100.00
69306;BME280;56427;51.580;4.656;2022-10-20T00:31:35;101584.88;;;9.77;100.00
69306;BME280;56427;51.580;4.656;2022-10-20T00:34:00;101591.59;;;9.67;100.00
69306;BME280;56427;51.580;4.656;2022-10-20T00:36:25;101602.06;;;9.65;100.00
69306;BME280;56427;51.580;4.656;2022-10-20T00:38:56;101593.38;;;9.66;100.00
69306;BME280;56427;51.580;4.656;2022-10-20T00:41:21;101580.72;;;9.74;100.00
69306;BME280;56427;51.580;4.656;2022-10-20T00:43:52;101586.63;;;9.76;100.00
69306;BME280;56427;51.580;4.656;2022-10-20T00:46:20;101568.47;;;9.64;100.00
69306;BME280;56427;51.580;4.656;2022-10-20T00:48:49;101570.03;;;9.66;100.00
69306;BME280;56427;51.580;4.656;2022-10-20T00:51:17;101557.38;;;9.62;100.00
69306;BME280;56427;51.580;4.656;2022-10-20T00:53:45;101550.78;;;9.70;100.00
69306;BME280;56427;51.580;4.656;2022-10-20T00:56:13;101549.00;;;9.58;100.00
69306;BME280;56427;51.580;4.656;2022-10-20T00:58:38;101547.56;;;9.54;100.00
69306;BME280;56427;51.580;4.656;2022-10-20T01:01:03;101538.22;;;9.64;100.00
69306;BME280;56427;51.580;4.656;2022-10-20T01:03:45;101538.72;;;9.44;100.00
69306;BME280;56427;51.580;4.656;2022-10-20T01:06:13;101541.22;;;9.58;100.00
69306;BME280;56427;51.580;4.656;2022-10-20T01:08:39;101531.25;;;9.52;100.00
69306;BME280;56427;51.580;4.656;2022-10-20T01:13:46;101538.13;;;9.53;100.00
69306;BME280;56427;51.580;4.656;2022-10-20T01:22:15;101501.09;;;9.64;100.00
69306;BME280;56427;51.580;4.656;2022-10-20T01:24:59;101496.44;;;9.69;100.00
69306;BME280;56427;51.580;4.656;2022-10-20T01:27:41;101491.97;;;9.58;100.00
69306;BME280;56427;51.580;4.656;2022-10-20T01:30:16;101488.06;;;9.52;100.00
69306;BME280;56427;51.580;4.656;2022-10-20T01:33:04;101491.56;;;9.64;100.00
69306;BME280;56427;51.580;4.656;2022-10-20T01:38:22;101492.59;;;9.62;100.00
69306;BME280;56427;51.580;4.656;2022-10-20T01:40:59;101491.38;;;9.54;100.00
69306;BME280;56427;51.580;4.656;2022-10-20T01:43:29;101491.38;;;9.54;100.00
69306;BME280;56427;51.580;4.656;2022-10-20T01:45:56;101494.69;;;9.56;100.00
69306;BME280;56427;51.580;4.656;2022-10-20T01:48:25;101490.97;;;9.48;100.00
69306;BME280;56427;51.580;4.656;2022-10-20T01:50:52;101488.47;;;9.46;100.00
69306;BME280;56427;51.580;4.656;2022-10-20T01:53:18;101483.28;;;9.46;100.00
69306;BME280;56427;51.580;4.656;2022-10-20T01:55:44;101476.22;;;9.61;100.00
69306;BME280;56427;51.580;4.656;2022-10-20T01:58:23;101464.00;;;9.50;100.00
69306;BME280;56427;51.580;4.656;2022-10-20T02:00:56;101470.34;;;9.59;100.00
69306;BME280;56427;51.580;4.656;2022-10-20T02:03:49;101452.69;;;9.64;100.00
69306;BME280;56427;51.580;4.656;2022-10-20T02:09:03;101441.72;;;9.48;100.00
69306;BME280;56427;51.580;4.656;2022-10-20T02:14:12;101428.78;;;9.48;100.00
69306;BME280;56427;51.580;4.656;2022-10-20T02:16:58;101427.63;;;9.52;100.00
69306;BME280;56427;51.580;4.656;2022-10-20T02:19:30;101428.16;;;9.44;100.00
69306;BME280;56427;51.580;4.656;2022-10-20T02:21:58;101412.53;;;9.46;100.00
69306;BME280;56427;51.580;4.656;2022-10-20T02:24:26;101403.06;;;9.45;100.00
69306;BME280;56427;51.580;4.656;2022-10-20T02:26:57;101395.09;;;9.48;100.00
69306;BME280;56427;51.580;4.656;2022-10-20T02:29:27;101390.22;;;9.56;100.00
69306;BME280;56427;51.580;4.656;2022-10-20T02:31:53;101382.84;;;9.50;100.00
69306;BME280;56427;51.580;4.656;2022-10-20T02:34:19;101371.84;;;9.59;100.00
69306;BME280;56427;51.580;4.656;2022-10-20T02:36:44;101371.66;;;9.62;100.00
69306;BME280;56427;51.580;4.656;2022-10-20T02:39:10;101373.31;;;9.50;100.00
69306;BME280;56427;51.580;4.656;2022-10-20T02:41:36;101377.84;;;9.60;100.00
69306;BME280;56427;51.580;4.656;2022-10-20T02:44:02;101373.00;;;9.55;100.00
69306;BME280;56427;51.580;4.656;2022-10-20T02:46:27;101369.97;;;9.61;100.00
69306;BME280;56427;51.580;4.656;2022-10-20T02:48:53;101353.72;;;9.59;100.00
69306;BME280;56427;51.580;4.656;2022-10-20T02:51:18;101355.31;;;9.73;100.00
69306;BME280;56427;51.580;4.656;2022-10-20T02:53:44;101348.25;;;9.51;100.00
69306;BME280;56427;51.580;4.656;2022-10-20T02:56:10;101350.34;;;9.70;100.00
69306;BME280;56427;51.580;4.656;2022-10-20T02:58:35;101349.75;;;9.66;100.00
69306;BME280;56427;51.580;4.656;2022-10-20T03:01:01;101355.34;;;9.60;100.00
69306;BME280;56427;51.580;4.656;2022-10-20T03:03:26;101361.88;;;9.66;100.00
69306;BME280;56427;51.580;4.656;2022-10-20T03:05:52;101357.31;;;9.69;100.00
69306;BME280;56427;51.580;4.656;2022-10-20T03:08:17;101354.97;;;9.53;100.00
69306;BME280;56427;51.580;4.656;2022-10-20T03:10:42;101346.34;;;9.66;100.00
69306;BME280;56427;51.580;4.656;2022-10-20T03:13:09;101350.16;;;9.60;100.00
69306;BME280;56427;51.580;4.656;2022-10-20T03:15:35;101332.16;;;9.83;100.00
69306;BME280;56427;51.580;4.656;2022-10-20T03:18:00;101328.38;;;9.75;100.00
69306;BME280;56427;51.580;4.656;2022-10-20T03:20:26;101314.56;;;9.75;100.00
69306;BME280;56427;51.580;4.656;2022-10-20T03:22:51;101309.16;;;9.78;100.00
69306;BME280;56427;51.580;4.656;2022-10-20T03:25:16;101306.50;;;9.91;100.00
69306;BME280;56427;51.580;4.656;2022-10-20T03:27:41;101310.22;;;9.75;100.00
69306;BME280;56427;51.580;4.656;2022-10-20T03:30:07;101314.78;;;9.72;100.00
69306;BME280;56427;51.580;4.656;2022-10-20T03:32:32;101311.03;;;9.76;100.00
69306;BME280;56427;51.580;4.656;2022-10-20T03:34:58;101311.81;;;9.89;100.00
69306;BME280;56427;51.580;4.656;2022-10-20T03:37:23;101304.25;;;9.86;100.00
69306;BME280;56427;51.580;4.656;2022-10-20T03:39:48;101304.47;;;9.83;100.00
69306;BME280;56427;51.580;4.656;2022-10-20T03:42:14;101301.53;;;9.88;100.00
69306;BME280;56427;51.580;4.656;2022-10-20T03:44:39;101302.66;;;10.08;100.00
69306;BME280;56427;51.580;4.656;2022-10-20T03:47:05;101293.44;;;9.92;100.00
69306;BME280;56427;51.580;4.656;2022-10-20T03:49:30;101283.53;;;9.98;100.00
69306;BME280;56427;51.580;4.656;2022-10-20T03:51:57;101283.91;;;10.04;100.00
69306;BME280;56427;51.580;4.656;2022-10-20T03:54:23;101282.72;;;9.97;100.00
69306;BME280;56427;51.580;4.656;2022-10-20T03:56:48;101289.81;;;9.95;100.00
69306;BME280;56427;51.580;4.656;2022-10-20T03:59:13;101287.31;;;10.05;100.00
69306;BME280;56427;51.580;4.656;2022-10-20T04:01:42;101278.28;;;10.10;100.00
69306;BME280;56427;51.580;4.656;2022-10-20T04:04:08;101283.38;;;10.12;100.00
69306;BME280;56427;51.580;4.656;2022-10-20T04:06:33;101284.16;;;10.01;100.00
69306;BME280;56427;51.580;4.656;2022-10-20T04:08:58;101281.09;;;10.07;100.00
69306;BME280;56427;51.580;4.656;2022-10-20T04:11:23;101274.63;;;10.13;100.00
69306;BME280;56427;51.580;4.656;2022-10-20T04:13:50;101271.59;;;10.19;100.00
69306;BME280;56427;51.580;4.656;2022-10-20T04:16:16;101271.25;;;10.24;100.00
69306;BME280;56427;51.580;4.656;2022-10-20T04:18:41;101277.47;;;10.10;100.00
69306;BME280;56427;51.580;4.656;2022-10-20T04:21:06;101282.88;;;10.07;100.00
69306;BME280;56427;51.580;4.656;2022-10-20T04:23:31;101288.47;;;10.25;100.00
69306;BME280;56427;51.580;4.656;2022-10-20T04:25:57;101285.78;;;10.38;100.00
69306;BME280;56427;51.580;4.656;2022-10-20T04:28:22;101281.91;;;10.32;100.00
69306;BME280;56427;51.580;4.656;2022-10-20T04:30:47;101299.06;;;10.22;100.00
69306;BME280;56427;51.580;4.656;2022-10-20T04:33:13;101301.63;;;10.10;100.00
69306;BME280;56427;51.580;4.656;2022-10-20T04:35:39;101279.00;;;10.12;100.00
69306;BME280;56427;51.580;4.656;2022-10-20T04:38:04;101270.88;;;10.17;100.00
69306;BME280;56427;51.580;4.656;2022-10-20T04:40:30;101264.06;;;10.27;100.00
69306;BME280;56427;51.580;4.656;2022-10-20T04:42:58;101250.47;;;10.12;100.00
69306;BME280;56427;51.580;4.656;2022-10-20T04:45:23;101231.97;;;10.17;100.00
69306;BME280;56427;51.580;4.656;2022-10-20T04:47:49;101224.09;;;10.30;100.00
69306;BME280;56427;51.580;4.656;2022-10-20T04:50:14;101237.50;;;10.12;100.00
69306;BME280;56427;51.580;4.656;2022-10-20T04:52:39;101263.78;;;10.08;100.00
69306;BME280;56427;51.580;4.656;2022-10-20T04:55:05;101266.50;;;10.18;100.00
69306;BME280;56427;51.580;4.656;2022-10-20T04:57:30;101264.66;;;10.20;100.00
69306;BME280;56427;51.580;4.656;2022-10-20T04:59:55;101244.00;;;10.29;100.00
69306;BME280;56427;51.580;4.656;2022-10-20T05:02:21;101233.19;;;10.36;100.00
69306;BME280;56427;51.580;4.656;2022-10-20T05:04:46;101237.97;;;10.18;100.00
69306;BME280;56427;51.580;4.656;2022-10-20T05:07:11;101222.66;;;10.26;100.00
69306;BME280;56427;51.580;4.656;2022-10-20T05:09:36;101209.47;;;10.29;100.00
69306;BME280;56427;51.580;4.656;2022-10-20T05:12:02;101214.53;;;10.30;100.00
69306;BME280;56427;51.580;4.656;2022-10-20T05:14:27;101211.00;;;10.20;100.00
69306;BME280;56427;51.580;4.656;2022-10-20T05:16:53;101208.81;;;10.38;100.00
69306;BME280;56427;51.580;4.656;2022-10-20T05:19:18;101219.81;;;10.18;100.00
69306;BME280;56427;51.580;4.656;2022-10-20T05:21:44;101212.50;;;10.23;100.00
69306;BME280;56427;51.580;4.656;2022-10-20T05:24:12;101204.72;;;10.23;100.00
69306;BME280;56427;51.580;4.656;2022-10-20T05:26:37;101202.84;;;10.13;100.00
69306;BME280;56427;51.580;4.656;2022-10-20T05:29:05;101199.34;;;10.37;100.00
69306;BME280;56427;51.580;4.656;2022-10-20T05:31:30;101208.63;;;10.17;100.00
69306;BME280;56427;51.580;4.656;2022-10-20T05:33:56;101214.84;;;10.14;100.00
69306;BME280;56427;51.580;4.656;2022-10-20T05:36:24;101222.66;;;10.03;100.00
69306;BME280;56427;51.580;4.656;2022-10-20T05:38:51;101220.28;;;10.00;100.00
69306;BME280;56427;51.580;4.656;2022-10-20T05:41:20;101213.56;;;10.09;100.00
69306;BME280;56427;51.580;4.656;2022-10-20T05:43:50;101219.69;;;10.08;100.00
69306;BME280;56427;51.580;4.656;2022-10-20T05:46:16;101221.56;;;10.06;100.00
69306;BME280;56427;51.580;4.656;2022-10-20T05:48:45;101221.22;;;10.10;100.00
69306;BME280;56427;51.580;4.656;2022-10-20T05:53:37;101201.19;;;10.12;100.00
69306;BME280;56427;51.580;4.656;2022-10-20T05:56:05;101173.72;;;10.21;100.00
69306;BME280;56427;51.580;4.656;2022-10-20T05:58:31;101169.94;;;10.03;100.00
69306;BME280;56427;51.580;4.656;2022-10-20T06:03:32;101178.34;;;10.29;100.00
69306;BME280;56427;51.580;4.656;2022-10-20T06:05:58;101178.69;;;10.24;100.00
69306;BME280;56427;51.580;4.656;2022-10-20T06:08:24;101189.16;;;10.23;100.00
69306;BME280;56427;51.580;4.656;2022-10-20T06:10:49;101192.72;;;10.22;100.00
69306;BME280;56427;51.580;4.656;2022-10-20T06:13:15;101185.19;;;10.30;100.00
69306;BME280;56427;51.580;4.656;2022-10-20T06:15:40;101184.13;;;10.32;100.00
69306;BME280;56427;51.580;4.656;2022-10-20T06:18:05;101187.94;;;10.40;100.00
69306;BME280;56427;51.580;4.656;2022-10-20T06:20:30;101184.47;;;10.28;100.00
69306;BME280;56427;51.580;4.656;2022-10-20T06:22:56;101184.13;;;10.44;100.00
69306;BME280;56427;51.580;4.656;2022-10-20T06:25:21;101190.53;;;10.40;100.00
69306;BME280;56427;51.580;4.656;2022-10-20T06:27:46;101179.16;;;10.75;100.00
69306;BME280;56427;51.580;4.656;2022-10-20T06:30:12;101175.44;;;10.56;100.00
69306;BME280;56427;51.580;4.656;2022-10-20T06:32:37;101174.47;;;10.57;100.00
69306;BME280;56427;51.580;4.656;2022-10-20T06:35:02;101165.75;;;10.47;100.00
69306;BME280;56427;51.580;4.656;2022-10-20T06:37:28;101163.25;;;10.57;100.00
69306;BME280;56427;51.580;4.656;2022-10-20T06:39:53;101165.97;;;10.55;100.00
69306;BME280;56427;51.580;4.656;2022-10-20T06:42:18;101172.47;;;10.61;100.00
69306;BME280;56427;51.580;4.656;2022-10-20T06:44:43;101170.69;;;10.50;100.00
69306;BME280;56427;51.580;4.656;2022-10-20T06:47:09;101167.41;;;10.59;100.00
69306;BME280;56427;51.580;4.656;2022-10-20T06:49:34;101163.00;;;10.71;100.00
69306;BME280;56427;51.580;4.656;2022-10-20T06:51:59;101153.91;;;10.65;100.00
69306;BME280;56427;51.580;4.656;2022-10-20T06:54:25;101170.69;;;10.61;100.00
69306;BME280;56427;51.580;4.656;2022-10-20T06:56:50;101160.41;;;10.71;100.00
69306;BME280;56427;51.580;4.656;2022-10-20T06:59:15;101158.03;;;10.91;100.00
69306;BME280;56427;51.580;4.656;2022-10-20T07:01:41;101158.88;;;10.80;100.00
69306;BME280;56427;51.580;4.656;2022-10-20T07:04:10;101160.88;;;10.76;100.00
69306;BME280;56427;51.580;4.656;2022-10-20T07:06:38;101160.13;;;10.97;100.00
69306;BME280;56427;51.580;4.656;2022-10-20T07:09:05;101169.94;;;10.93;100.00
69306;BME280;56427;51.580;4.656;2022-10-20T07:11:32;101165.72;;;10.81;100.00
69306;BME280;56427;51.580;4.656;2022-10-20T07:13:59;101167.22;;;10.83;100.00
69306;BME280;56427;51.580;4.656;2022-10-20T07:16:26;101172.41;;;10.95;100.00
69306;BME280;56427;51.580;4.656;2022-10-20T07:18:52;101174.66;;;10.88;100.00
69306;BME280;56427;51.580;4.656;2022-10-20T07:21:22;101163.69;;;10.96;100.00
69306;BME280;56427;51.580;4.656;2022-10-20T07:23:48;101168.53;;;10.89;100.00
69306;BME280;56427;51.580;4.656;2022-10-20T07:26:20;101158.06;;;11.12;100.00
69306;BME280;56427;51.580;4.656;2022-10-20T07:28:48;101167.59;;;11.22;100.00
69306;BME280;56427;51.580;4.656;2022-10-20T07:31:17;101165.28;;;11.08;100.00
69306;BME280;56427;51.580;4.656;2022-10-20T07:33:43;101177.06;;;11.23;100.00
69306;BME280;56427;51.580;4.656;2022-10-20T07:36:18;101171.09;;;11.33;100.00
69306;BME280;56427;51.580;4.656;2022-10-20T07:38:44;101166.53;;;11.46;100.00
69306;BME280;56427;51.580;4.656;2022-10-20T07:41:10;101164.47;;;11.61;100.00
69306;BME280;56427;51.580;4.656;2022-10-20T07:43:36;101172.94;;;11.74;100.00
69306;BME280;56427;51.580;4.656;2022-10-20T07:46:02;101172.53;;;11.79;100.00
69306;BME280;56427;51.580;4.656;2022-10-20T07:48:28;101180.78;;;11.84;100.00
69306;BME280;56427;51.580;4.656;2022-10-20T07:50:53;101183.00;;;11.68;100.00
69306;BME280;56427;51.580;4.656;2022-10-20T07:53:19;101178.31;;;11.62;100.00
69306;BME280;56427;51.580;4.656;2022-10-20T07:55:44;101189.34;;;11.75;100.00
69306;BME280;56427;51.580;4.656;2022-10-20T07:58:10;101176.72;;;11.70;100.00
69306;BME280;56427;51.580;4.656;2022-10-20T08:00:36;101167.38;;;11.89;100.00
69306;BME280;56427;51.580;4.656;2022-10-20T08:03:01;101160.00;;;11.63;100.00
69306;BME280;56427;51.580;4.656;2022-10-20T08:05:27;101167.97;;;11.71;100.00
69306;BME280;56427;51.580;4.656;2022-10-20T08:07:53;101167.06;;;11.82;100.00
69306;BME280;56427;51.580;4.656;2022-10-20T08:10:18;101172.03;;;11.85;100.00
69306;BME280;56427;51.580;4.656;2022-10-20T08:12:44;101159.53;;;12.00;100.00
69306;BME280;56427;51.580;4.656;2022-10-20T08:15:09;101163.19;;;12.19;100.00
69306;BME280;56427;51.580;4.656;2022-10-20T08:17:34;101164.28;;;12.16;100.00
69306;BME280;56427;51.580;4.656;2022-10-20T08:20:00;101162.94;;;12.22;100.00
69306;BME280;56427;51.580;4.656;2022-10-20T08:22:25;101162.19;;;12.41;100.00
69306;BME280;56427;51.580;4.656;2022-10-20T08:24:50;101169.22;;;12.50;100.00
69306;BME280;56427;51.580;4.656;2022-10-20T08:27:16;101166.19;;;12.55;100.00
69306;BME280;56427;51.580;4.656;2022-10-20T08:29:41;101155.41;;;12.59;100.00
69306;BME280;56427;51.580;4.656;2022-10-20T08:32:07;101157.63;;;12.74;100.00
69306;BME280;56427;51.580;4.656;2022-10-20T08:34:32;101145.16;;;12.77;100.00
69306;BME280;56427;51.580;4.656;2022-10-20T08:36:57;101152.09;;;12.57;100.00
69306;BME280;56427;51.580;4.656;2022-10-20T08:39:24;101151.59;;;12.63;100.00
69306;BME280;56427;51.580;4.656;2022-10-20T08:41:50;101127.88;;;12.66;100.00
69306;BME280;56427;51.580;4.656;2022-10-20T08:44:23;101133.38;;;12.73;100.00
69306;BME280;56427;51.580;4.656;2022-10-20T08:46:49;101128.75;;;12.86;100.00
69306;BME280;56427;51.580;4.656;2022-10-20T08:49:23;101122.28;;;12.91;100.00
69306;BME280;56427;51.580;4.656;2022-10-20T08:51:49;101121.88;;;12.95;100.00
69306;BME280;56427;51.580;4.656;2022-10-20T08:54:15;101129.69;;;12.85;100.00
69306;BME280;56427;51.580;4.656;2022-10-20T08:56:41;101119.41;;;13.03;100.00
69306;BME280;56427;51.580;4.656;2022-10-20T08:59:27;101112.00;;;13.28;100.00
69306;BME280;56427;51.580;4.656;2022-10-20T09:01:54;101125.72;;;13.50;100.00
69306;BME280;56427;51.580;4.656;2022-10-20T09:06:51;101130.00;;;13.41;100.00
69306;BME280;56427;51.580;4.656;2022-10-20T09:09:20;101133.56;;;13.40;100.00
69306;BME280;56427;51.580;4.656;2022-10-20T09:11:46;101142.34;;;13.29;100.00
69306;BME280;56427;51.580;4.656;2022-10-20T09:14:12;101145.78;;;13.49;100.00
69306;BME280;56427;51.580;4.656;2022-10-20T09:16:40;101135.22;;;13.51;100.00
69306;BME280;56427;51.580;4.656;2022-10-20T09:19:14;101136.53;;;13.65;100.00
69306;BME280;56427;51.580;4.656;2022-10-20T09:21:41;101133.38;;;13.71;100.00
69306;BME280;56427;51.580;4.656;2022-10-20T09:24:07;101135.41;;;13.87;100.00
69306;BME280;56427;51.580;4.656;2022-10-20T09:26:35;101124.97;;;13.87;100.00
69306;BME280;56427;51.580;4.656;2022-10-20T09:29:14;101124.84;;;13.78;100.00
69306;BME280;56427;51.580;4.656;2022-10-20T09:31:45;101130.88;;;13.89;100.00
69306;BME280;56427;51.580;4.656;2022-10-20T09:36:51;101129.38;;;13.76;100.00
69306;BME280;56427;51.580;4.656;2022-10-20T09:39:26;101117.19;;;13.67;100.00
69306;BME280;56427;51.580;4.656;2022-10-20T09:44:57;101119.66;;;13.69;100.00
69306;BME280;56427;51.580;4.656;2022-10-20T09:47:25;101115.69;;;13.65;100.00
69306;BME280;56427;51.580;4.656;2022-10-20T09:50:03;101102.09;;;13.61;100.00
69306;BME280;56427;51.580;4.656;2022-10-20T09:52:32;101097.78;;;13.79;100.00
69306;BME280;56427;51.580;4.656;2022-10-20T09:55:06;101085.66;;;13.60;100.00
69306;BME280;56427;51.580;4.656;2022-10-20T09:57:33;101104.97;;;13.68;100.00
69306;BME280;56427;51.580;4.656;2022-10-20T09:59:59;101105.81;;;13.58;100.00
69306;BME280;56427;51.580;4.656;2022-10-20T10:02:30;101094.72;;;13.47;100.00
69306;BME280;56427;51.580;4.656;2022-10-20T10:05:16;101090.03;;;13.50;100.00
69306;BME280;56427;51.580;4.656;2022-10-20T10:07:43;101081.53;;;13.58;100.00
69306;BME280;56427;51.580;4.656;2022-10-20T10:12:50;101056.00;;;13.52;100.00
69306;BME280;56427;51.580;4.656;2022-10-20T10:17:47;101032.47;;;13.71;100.00
69306;BME280;56427;51.580;4.656;2022-10-20T10:22:40;101049.69;;;13.54;100.00
69306;BME280;56427;51.580;4.656;2022-10-20T10:25:14;101048.78;;;13.36;100.00
69306;BME280;56427;51.580;4.656;2022-10-20T10:28:02;101046.56;;;13.51;100.00
69306;BME280;56427;51.580;4.656;2022-10-20T10:30:35;101052.31;;;13.44;100.00
69306;BME280;56427;51.580;4.656;2022-10-20T10:33:21;101036.13;;;13.31;100.00
69306;BME280;56427;51.580;4.656;2022-10-20T10:35:48;101023.53;;;13.36;100.00
69306;BME280;56427;51.580;4.656;2022-10-20T10:38:14;101011.28;;;13.47;100.00
69306;BME280;56427;51.580;4.656;2022-10-20T10:46:18;101030.94;;;13.31;100.00
69306;BME280;56427;51.580;4.656;2022-10-20T10:49:07;101044.50;;;13.44;100.00
69306;BME280;56427;51.580;4.656;2022-10-20T10:55:10;101042.16;;;13.51;100.00
69306;BME280;56427;51.580;4.656;2022-10-20T10:57:56;101033.16;;;13.36;100.00
69306;BME280;56427;51.580;4.656;2022-10-20T11:00:43;101033.53;;;13.41;100.00
69306;BME280;56427;51.580;4.656;2022-10-20T11:03:51;101030.91;;;13.51;100.00
69306;BME280;56427;51.580;4.656;2022-10-20T11:06:29;101022.78;;;13.64;100.00
69306;BME280;56427;51.580;4.656;2022-10-20T11:12:16;101034.16;;;13.62;100.00
69306;BME280;56427;51.580;4.656;2022-10-20T11:17:54;101036.38;;;13.57;100.00
69306;BME280;56427;51.580;4.656;2022-10-20T11:23:17;101026.59;;;13.69;100.00
69306;BME280;56427;51.580;4.656;2022-10-20T11:25:51;101037.44;;;13.65;100.00
69306;BME280;56427;51.580;4.656;2022-10-20T11:28:45;101039.91;;;13.66;100.00
69306;BME280;56427;51.580;4.656;2022-10-20T11:34:01;101031.09;;;13.77;100.00
69306;BME280;56427;51.580;4.656;2022-10-20T11:36:33;101041.34;;;13.88;100.00
69306;BME280;56427;51.580;4.656;2022-10-20T11:39:00;101033.63;;;13.96;100.00
69306;BME280;56427;51.580;4.656;2022-10-20T11:41:37;101026.31;;;14.00;100.00
69306;BME280;56427;51.580;4.656;2022-10-20T11:44:11;101028.81;;;14.20;100.00
69306;BME280;56427;51.580;4.656;2022-10-20T11:46:53;101030.44;;;14.21;100.00
69306;BME280;56427;51.580;4.656;2022-10-20T11:49:20;101019.28;;;14.28;100.00
69306;BME280;56427;51.580;4.656;2022-10-20T11:58:56;101015.72;;;14.83;100.00
69306;BME280;56427;51.580;4.656;2022-10-20T12:01:28;101008.69;;;15.02;100.00
69306;BME280;56427;51.580;4.656;2022-10-20T12:04:13;101013.38;;;14.98;100.00
69306;BME280;56427;51.580;4.656;2022-10-20T12:09:55;100998.16;;;15.38;100.00
69306;BME280;56427;51.580;4.656;2022-10-20T12:12:29;100991.53;;;15.60;100.00
69306;BME280;56427;51.580;4.656;2022-10-20T12:15:02;100994.44;;;15.49;100.00
69306;BME280;56427;51.580;4.656;2022-10-20T12:17:35;100984.34;;;15.62;100.00
69306;BME280;56427;51.580;4.656;2022-10-20T12:22:46;100983.91;;;16.26;100.00
69306;BME280;56427;51.580;4.656;2022-10-20T12:25:33;100978.53;;;16.35;100.00
69306;BME280;56427;51.580;4.656;2022-10-20T12:30:56;100980.00;;;16.63;100.00
69306;BME280;56427;51.580;4.656;2022-10-20T12:34:00;100972.34;;;17.02;100.00
69306;BME280;56427;51.580;4.656;2022-10-20T12:36:32;100963.69;;;17.41;100.00
69306;BME280;56427;51.580;4.656;2022-10-20T12:39:11;100982.06;;;17.41;100.00
69306;BME280;56427;51.580;4.656;2022-10-20T12:41:44;100978.09;;;17.54;100.00
69306;BME280;56427;51.580;4.656;2022-10-20T12:44:17;100982.06;;;17.41;100.00
69306;BME280;56427;51.580;4.656;2022-10-20T12:46:52;100972.09;;;17.20;100.00
69306;BME280;56427;51.580;4.656;2022-10-20T12:49:24;100974.94;;;17.02;100.00
69306;BME280;56427;51.580;4.656;2022-10-20T12:51:52;100971.31;;;17.11;100.00
69306;BME280;56427;51.580;4.656;2022-10-20T12:54:23;100967.09;;;17.02;100.00
69306;BME280;56427;51.580;4.656;2022-10-20T12:56:50;100969.03;;;16.92;100.00
69306;BME280;56427;51.580;4.656;2022-10-20T13:05:23;100946.59;;;17.06;100.00
69306;BME280;56427;51.580;4.656;2022-10-20T13:10:37;100936.97;;;17.77;100.00
69306;BME280;56427;51.580;4.656;2022-10-20T13:18:11;100926.13;;;17.80;100.00
69306;BME280;56427;51.580;4.656;2022-10-20T13:23:28;100918.75;;;17.76;100.00
69306;BME280;56427;51.580;4.656;2022-10-20T13:25:56;100907.38;;;17.92;100.00
69306;BME280;56427;51.580;4.656;2022-10-20T13:28:24;100906.75;;;17.81;100.00
69306;BME280;56427;51.580;4.656;2022-10-20T13:31:07;100906.75;;;18.13;100.00
69306;BME280;56427;51.580;4.656;2022-10-20T13:36:25;100899.97;;;18.18;100.00
69306;BME280;56427;51.580;4.656;2022-10-20T13:42:02;100905.78;;;18.06;100.00
69306;BME280;56427;51.580;4.656;2022-10-20T13:47:49;100904.06;;;17.98;100.00
69306;BME280;56427;51.580;4.656;2022-10-20T13:50:35;100887.84;;;18.17;100.00
69306;BME280;56427;51.580;4.656;2022-10-20T13:53:11;100888.75;;;18.25;100.00
69306;BME280;56427;51.580;4.656;2022-10-20T13:58:40;100882.59;;;18.17;100.00
69306;BME280;56427;51.580;4.656;2022-10-20T14:01:14;100877.13;;;18.19;100.00
69306;BME280;56427;51.580;4.656;2022-10-20T14:03:46;100886.69;;;18.35;100.00
69306;BME280;56427;51.580;4.656;2022-10-20T14:06:27;100888.88;;;18.31;100.00
69306;BME280;56427;51.580;4.656;2022-10-20T14:09:16;100888.38;;;18.51;100.00
69306;BME280;56427;51.580;4.656;2022-10-20T14:11:47;100881.63;;;18.33;100.00
69306;BME280;56427;51.580;4.656;2022-10-20T14:14:17;100869.19;;;18.27;100.00
69306;BME280;56427;51.580;4.656;2022-10-20T14:16:53;100896.97;;;18.45;100.00
69306;BME280;56427;51.580;4.656;2022-10-20T14:19:21;100892.94;;;18.72;100.00
69306;BME280;56427;51.580;4.656;2022-10-20T14:21:51;100882.16;;;18.67;100.00
69306;BME280;56427;51.580;4.656;2022-10-20T14:24:27;100879.22;;;18.76;100.00
69306;BME280;56427;51.580;4.656;2022-10-20T14:26:54;100876.59;;;18.76;100.00
69306;BME280;56427;51.580;4.656;2022-10-20T14:29:21;100882.78;;;18.69;100.00
69306;BME280;56427;51.580;4.656;2022-10-20T14:31:48;100884.13;;;18.80;100.00
69306;BME280;56427;51.580;4.656;2022-10-20T14:34:17;100884.28;;;18.63;100.00